Capitol Logistics 253


KAFW
Fort Worth Alliance Airport
Fort Worth, Texas, US
KRFD
Chicago/Rockford International Airport
Rockford, Illinois, US

Activity Log

Date Flight Route Aircraft Duration
04/29/2020 CPX253 TEX7 GRABE RZC J105 VORIN B763 1h 50m

Route Details

Aircraft Information
Primary: Boeing 767-300BDSF
Backup: Not Available
Route Data
Distance: 676nm
Sched. Duration: 1h 50m
Avg. Duration: 1h 50m (-0m)
Times Flown: 1
Recm'd Route: TEX5 OKM J181 BAYLI J105 BDF
Planned Altitude: 35,000ft
Origin Wx: KAFW 191653Z 03011KT 10SM OVC055 12/M02 A3036 RMK AO2 SLP281 T01171017 $
Dest. Wx: KRFD 191654Z 19004KT 9SM -SN BKN036 OVC046 M04/M09 A3018 RMK AO2 SNB23 SLP233 P0000 T10441089
Notes:

Financial History
Total Freight: 103,640lbs
Average Load: 103,640lbs/flt
Fuel Used: 19,042lbs
Avg. Fuel Used: 19,042lbs/flt
Fuel Expense: $15,424
Avg. Fuel Expense: $15,424
Avg. Fuel Cost: $0.81/lbs
Total Gross Income: $147,169
Pilot Pay: $259
Total Expenses: $15,946
Total Revenue: $115,410
Average Revenue: $147,168.80